createdAt,value
2018-08-13T00:00:36.338Z,7.17
2018-08-13T00:03:04.269Z,6.20
2018-08-13T00:05:32.091Z,6.55
2018-08-13T00:07:59.976Z,6.47
2018-08-13T00:10:28.032Z,6.15
2018-08-13T00:12:55.936Z,6.40
2018-08-13T00:15:24.217Z,6.78
2018-08-13T00:17:52.168Z,12.07
2018-08-13T00:20:19.717Z,6.27
2018-08-13T00:22:47.300Z,7.08
2018-08-13T00:25:14.904Z,6.40
2018-08-13T00:27:42.682Z,6.85
2018-08-13T00:30:10.614Z,6.40
2018-08-13T00:32:38.429Z,7.47
2018-08-13T00:35:06.297Z,6.47
2018-08-13T00:37:34.486Z,6.20
2018-08-13T00:40:02.046Z,6.15
2018-08-13T00:42:29.706Z,6.50
2018-08-13T00:44:57.740Z,7.17
2018-08-13T00:47:25.532Z,10.03
2018-08-13T00:49:53.406Z,6.80
2018-08-13T00:52:21.181Z,7.30
2018-08-13T00:54:49.077Z,7.70
2018-08-13T00:57:16.915Z,9.33
2018-08-13T00:59:44.974Z,6.15
2018-08-13T01:02:12.940Z,7.03
2018-08-13T01:04:40.757Z,8.98
2018-08-13T01:07:08.388Z,6.10
2018-08-13T01:09:35.884Z,7.33
2018-08-13T01:12:03.550Z,5.80
2018-08-13T01:14:31.758Z,6.90
2018-08-13T01:16:59.523Z,6.50
2018-08-13T01:19:27.602Z,10.00
2018-08-13T01:21:55.108Z,7.50
2018-08-13T01:24:23.231Z,7.00
2018-08-13T01:26:51.002Z,6.17
2018-08-13T01:29:19.270Z,6.50
2018-08-13T01:31:47.739Z,7.00
2018-08-13T01:34:15.719Z,6.58
2018-08-13T01:36:43.382Z,6.47
2018-08-13T01:39:12.070Z,7.17
2018-08-13T01:41:40.039Z,6.90
2018-08-13T01:44:07.658Z,7.05
2018-08-13T01:46:35.578Z,6.30
2018-08-13T01:49:03.746Z,6.90
2018-08-13T01:51:31.647Z,7.40
2018-08-13T01:53:59.611Z,6.10
2018-08-13T01:56:27.683Z,7.05
2018-08-13T01:58:55.630Z,7.20
2018-08-13T02:01:23.341Z,6.60
2018-08-13T02:03:51.146Z,7.75
2018-08-13T02:06:19.228Z,8.13
2018-08-13T02:08:46.663Z,8.60
2018-08-13T02:11:14.359Z,6.28
2018-08-13T02:13:41.911Z,7.20
2018-08-13T02:16:09.976Z,5.90
2018-08-13T02:18:38.661Z,7.40
2018-08-13T02:21:06.852Z,7.60
2018-08-13T02:23:35.013Z,8.40
2018-08-13T02:26:02.983Z,9.93
2018-08-13T02:28:30.387Z,7.20
2018-08-13T02:30:58.922Z,6.80
2018-08-13T02:33:26.887Z,6.60
2018-08-13T02:35:54.475Z,6.60
2018-08-13T02:38:22.051Z,7.00
2018-08-13T02:40:49.644Z,7.60
2018-08-13T02:43:17.155Z,6.85
2018-08-13T02:45:45.001Z,7.20
2018-08-13T02:48:12.500Z,7.90
2018-08-13T02:50:40.329Z,8.20
2018-08-13T02:53:08.406Z,6.50
2018-08-13T02:55:36.025Z,9.80
2018-08-13T02:58:04.216Z,6.40
2018-08-13T03:00:31.760Z,7.22
2018-08-13T03:02:59.804Z,7.80
2018-08-13T03:05:28.388Z,6.83
2018-08-13T03:07:56.080Z,10.82
2018-08-13T03:10:24.096Z,10.40
2018-08-13T03:12:51.850Z,7.87
2018-08-13T03:15:19.651Z,10.72
2018-08-13T03:17:47.686Z,9.28
2018-08-13T03:20:15.656Z,7.10
2018-08-13T03:22:43.536Z,8.35
2018-08-13T03:25:11.597Z,7.00
2018-08-13T03:27:39.638Z,7.10
2018-08-13T03:30:11.219Z,8.00
2018-08-13T03:32:39.284Z,7.60
2018-08-13T03:35:06.759Z,9.80
2018-08-13T03:37:34.653Z,6.80
2018-08-13T03:40:02.488Z,10.98
2018-08-13T03:42:30.869Z,6.78
2018-08-13T03:44:58.672Z,7.30
2018-08-13T03:47:26.248Z,6.75
2018-08-13T03:49:54.199Z,6.80
2018-08-13T03:52:22.260Z,9.18
2018-08-13T03:54:49.714Z,7.10
2018-08-13T03:57:17.443Z,6.47
2018-08-13T03:59:45.418Z,8.40
2018-08-13T04:02:13.379Z,7.40
2018-08-13T04:04:41.569Z,7.65
2018-08-13T04:07:09.205Z,6.60
2018-08-13T04:09:37.719Z,7.67
2018-08-13T04:12:06.092Z,7.37
2018-08-13T04:14:34.279Z,6.42
2018-08-13T04:17:03.039Z,6.80
2018-08-13T04:19:31.918Z,7.70
2018-08-13T04:22:00.392Z,6.50
2018-08-13T04:24:28.502Z,6.75
2018-08-13T04:26:57.241Z,9.43
2018-08-13T04:29:25.256Z,6.60
2018-08-13T04:31:53.041Z,6.95
2018-08-13T04:34:21.703Z,6.10
2018-08-13T04:36:49.159Z,10.88
2018-08-13T04:39:17.236Z,8.25
2018-08-13T04:41:44.794Z,7.72
2018-08-13T04:44:13.927Z,6.73
2018-08-13T04:46:41.796Z,6.10
2018-08-13T04:49:09.429Z,6.80
2018-08-13T04:51:37.278Z,9.68
2018-08-13T04:54:05.767Z,7.20
2018-08-13T04:56:33.807Z,7.00
2018-08-13T04:59:01.676Z,6.67
2018-08-13T05:01:29.371Z,6.95
2018-08-13T05:03:57.483Z,6.63
2018-08-13T05:06:25.416Z,8.43
2018-08-13T05:08:53.287Z,8.20
2018-08-13T05:11:21.654Z,8.30
2018-08-13T05:13:50.165Z,6.97
2018-08-13T05:16:18.219Z,6.60
2018-08-13T05:18:45.968Z,9.65
2018-08-13T05:21:14.371Z,7.10
2018-08-13T05:23:42.242Z,6.60
2018-08-13T05:26:10.120Z,6.90
2018-08-13T05:28:37.895Z,8.58
2018-08-13T05:31:05.540Z,6.35
2018-08-13T05:33:33.599Z,5.85
2018-08-13T05:36:01.762Z,6.00
2018-08-13T05:38:30.656Z,6.50
2018-08-13T05:40:58.419Z,7.50
2018-08-13T05:43:26.709Z,6.58
2018-08-13T05:45:54.287Z,6.83
2018-08-13T05:48:21.871Z,7.42
2018-08-13T05:50:49.479Z,12.80
2018-08-13T05:53:17.099Z,6.10
2018-08-13T05:55:44.654Z,7.08
2018-08-13T05:58:12.274Z,10.60
2018-08-13T06:00:40.189Z,9.93
2018-08-13T06:03:07.714Z,9.83
2018-08-13T06:05:35.270Z,8.18
2018-08-13T06:08:03.216Z,8.65
2018-08-13T06:10:31.280Z,10.45
2018-08-13T06:12:59.473Z,7.33
2018-08-13T06:15:27.164Z,7.80
2018-08-13T06:17:55.010Z,11.10
2018-08-13T06:20:22.979Z,9.13
2018-08-13T06:22:50.872Z,9.40
2018-08-13T06:25:18.483Z,8.28
2018-08-13T06:27:46.467Z,8.68
2018-08-13T06:30:15.072Z,8.70
2018-08-13T06:32:43.070Z,9.80
2018-08-13T06:35:11.164Z,11.22
2018-08-13T06:37:39.047Z,8.47
2018-08-13T06:40:08.096Z,9.40
2018-08-13T06:42:36.506Z,9.35
2018-08-13T06:45:06.056Z,10.65
2018-08-13T06:47:34.728Z,11.77
2018-08-13T06:50:03.327Z,10.00
2018-08-13T06:52:31.175Z,7.33
2018-08-13T06:54:59.256Z,11.83
2018-08-13T06:57:27.328Z,8.85
2018-08-13T06:59:55.403Z,8.47
2018-08-13T07:02:23.050Z,8.30
2018-08-13T07:04:50.818Z,9.00
2018-08-13T07:07:18.609Z,8.50
2018-08-13T07:09:46.296Z,8.60
2018-08-13T07:12:14.525Z,8.98
2018-08-13T07:14:42.414Z,7.83
2018-08-13T07:17:10.065Z,10.00
2018-08-13T07:19:37.972Z,9.08
2018-08-13T07:22:05.544Z,8.50
2018-08-13T07:24:33.466Z,11.05
2018-08-13T07:27:01.312Z,8.48
2018-08-13T07:29:29.705Z,8.97
2018-08-13T07:31:57.302Z,9.10
2018-08-13T07:34:24.800Z,13.38
2018-08-13T07:36:52.898Z,7.37
2018-08-13T07:39:20.816Z,8.70
2018-08-13T07:41:48.648Z,8.13
2018-08-13T07:44:16.387Z,11.10
2018-08-13T07:46:43.847Z,8.70
2018-08-13T07:49:11.828Z,8.60
2018-08-13T07:51:39.330Z,13.50
2018-08-13T07:54:07.356Z,11.55
2018-08-13T07:56:34.866Z,7.80
2018-08-13T07:59:02.434Z,8.30
2018-08-13T08:01:30.445Z,7.95
2018-08-13T08:03:58.199Z,8.33
2018-08-13T08:06:25.966Z,8.30
2018-08-13T08:08:53.475Z,8.65
2018-08-13T08:11:21.186Z,10.40
2018-08-13T08:13:49.155Z,9.70
2018-08-13T08:16:17.052Z,10.08
2018-08-13T08:18:45.010Z,7.33
2018-08-13T08:21:12.907Z,9.70
2018-08-13T08:23:40.440Z,8.78
2018-08-13T08:26:08.156Z,7.00
2018-08-13T08:28:36.186Z,11.00
2018-08-13T08:31:04.233Z,7.30
2018-08-13T08:33:32.044Z,11.00
2018-08-13T08:35:59.863Z,9.23
2018-08-13T08:38:27.630Z,8.58
2018-08-13T08:40:55.422Z,7.00
2018-08-13T08:43:23.231Z,10.30
2018-08-13T08:45:51.068Z,8.23
2018-08-13T08:48:18.596Z,8.50
2018-08-13T08:50:46.359Z,6.80
2018-08-13T08:53:14.183Z,7.33
2018-08-13T08:55:41.684Z,9.17
2018-08-13T08:58:09.746Z,6.87
2018-08-13T09:00:37.532Z,5.92
2018-08-13T09:03:05.401Z,7.15
2018-08-13T09:05:33.138Z,9.68
2018-08-13T09:08:00.593Z,8.70
2018-08-13T09:10:28.255Z,11.20
2018-08-13T09:12:56.118Z,13.35
2018-08-13T09:15:23.555Z,15.03
2018-08-13T09:17:58.184Z,13.22
2018-08-13T09:20:31.344Z,14.50
2018-08-13T09:23:04.598Z,13.25
2018-08-13T09:25:37.623Z,16.47
2018-08-13T09:28:10.763Z,10.88
2018-08-13T09:30:43.747Z,11.73
2018-08-13T09:33:16.963Z,11.60
2018-08-13T09:35:44.872Z,11.55
2018-08-13T09:38:12.629Z,18.20
2018-08-13T09:40:40.181Z,13.10
2018-08-13T09:43:07.915Z,11.03
2018-08-13T09:45:35.354Z,11.30
2018-08-13T09:48:03.169Z,10.82
2018-08-13T09:50:31.004Z,16.75
2018-08-13T09:52:58.559Z,12.50
2018-08-13T09:55:26.076Z,10.30
2018-08-13T09:57:53.944Z,10.82
2018-08-13T10:00:26.961Z,11.00
2018-08-13T10:02:55.060Z,10.53
2018-08-13T10:05:22.727Z,10.20
2018-08-13T10:07:50.303Z,8.80
2018-08-13T10:10:18.652Z,9.18
2018-08-13T10:12:46.973Z,10.40
2018-08-13T10:15:15.024Z,9.33
2018-08-13T10:17:42.992Z,9.88
2018-08-13T10:20:11.666Z,11.63
2018-08-13T10:22:39.536Z,11.30
2018-08-13T10:25:07.897Z,12.18
2018-08-13T10:27:35.696Z,8.75
2018-08-13T10:30:03.340Z,8.35
2018-08-13T10:32:30.811Z,7.90
2018-08-13T10:34:58.560Z,8.90
2018-08-13T10:37:26.368Z,8.90
2018-08-13T10:39:54.491Z,9.00
2018-08-13T10:42:22.333Z,10.85
2018-08-13T10:44:50.157Z,9.00
2018-08-13T10:47:17.957Z,8.63
2018-08-13T10:49:45.602Z,8.60
2018-08-13T10:52:13.831Z,9.00
2018-08-13T10:54:41.704Z,8.00
2018-08-13T10:57:09.221Z,11.75
2018-08-13T10:59:37.232Z,8.15
2018-08-13T11:02:05.045Z,7.90
2018-08-13T11:04:32.564Z,16.90
2018-08-13T11:07:00.087Z,39.45
2018-08-13T11:09:27.994Z,57.93
2018-08-13T11:11:55.769Z,30.50
2018-08-13T11:14:23.537Z,17.53
2018-08-13T11:16:51.483Z,17.98
2018-08-13T11:19:19.013Z,20.10
2018-08-13T11:21:47.157Z,13.88
2018-08-13T11:24:14.787Z,13.45
2018-08-13T11:26:42.842Z,9.90
2018-08-13T11:29:10.853Z,11.40
2018-08-13T11:31:38.685Z,16.02
2018-08-13T11:34:06.424Z,10.65
2018-08-13T11:36:33.876Z,9.63
2018-08-13T11:39:02.513Z,224.88
2018-08-13T11:41:30.180Z,190.83
2018-08-13T11:43:58.272Z,276.73
2018-08-13T11:46:26.161Z,212.90
2018-08-13T11:48:54.273Z,203.67
2018-08-13T11:51:21.834Z,153.03
2018-08-13T11:53:49.836Z,134.15
2018-08-13T11:56:17.438Z,167.85
2018-08-13T11:58:44.898Z,211.82
2018-08-13T12:01:12.339Z,229.15
2018-08-13T12:03:39.837Z,149.10
2018-08-13T12:06:07.399Z,159.97
2018-08-13T12:08:34.851Z,145.05
2018-08-13T12:11:02.922Z,176.32
2018-08-13T12:13:30.638Z,168.43
2018-08-13T12:15:58.099Z,183.57
2018-08-13T12:18:25.848Z,184.45
2018-08-13T12:20:53.675Z,128.70
2018-08-13T12:23:21.233Z,139.92
2018-08-13T12:25:48.964Z,186.60
2018-08-13T12:28:16.719Z,159.65
2018-08-13T12:30:44.193Z,149.35
2018-08-13T12:33:11.940Z,188.95
2018-08-13T12:35:39.760Z,177.97
2018-08-13T12:38:07.247Z,140.97
2018-08-13T12:40:34.739Z,203.35
2018-08-13T12:43:02.334Z,156.87
2018-08-13T12:45:29.809Z,144.72
2018-08-13T12:47:57.272Z,187.72
2018-08-13T12:50:24.799Z,167.55
2018-08-13T12:52:53.211Z,98.50
2018-08-13T12:55:21.079Z,171.77
2018-08-13T12:57:49.226Z,148.47
2018-08-13T13:00:17.672Z,184.22
2018-08-13T13:02:45.453Z,92.45
2018-08-13T13:05:14.263Z,207.45
2018-08-13T13:07:41.797Z,146.32
2018-08-13T13:10:11.344Z,152.10
2018-08-13T13:12:39.657Z,181.50
2018-08-13T13:15:07.964Z,151.05
2018-08-13T13:17:35.915Z,134.57
2018-08-13T13:20:03.772Z,178.20
2018-08-13T13:22:31.276Z,217.72
2018-08-13T13:24:58.812Z,189.22
2018-08-13T13:27:26.364Z,147.13
2018-08-13T13:29:54.116Z,160.05
2018-08-13T13:32:21.932Z,181.18
2018-08-13T13:34:49.696Z,187.53
2018-08-13T13:37:17.876Z,119.62
2018-08-13T13:39:45.676Z,195.20
2018-08-13T13:42:13.184Z,154.12
2018-08-13T13:44:40.776Z,170.07
2018-08-13T13:47:08.460Z,185.03
2018-08-13T13:49:36.183Z,191.45
2018-08-13T13:52:04.245Z,102.72
2018-08-13T13:54:32.076Z,199.75
2018-08-13T13:56:59.572Z,125.87
2018-08-13T13:59:27.344Z,199.37
2018-08-13T14:01:55.220Z,164.77
2018-08-13T14:04:23.029Z,170.20
2018-08-13T14:06:50.803Z,122.47
2018-08-13T14:09:18.303Z,195.03
2018-08-13T14:11:46.078Z,194.57
2018-08-13T14:14:13.594Z,206.70
2018-08-13T14:16:41.462Z,168.15
2018-08-13T14:19:09.586Z,192.30
2018-08-13T14:21:37.155Z,228.90
2018-08-13T14:24:05.548Z,189.00
2018-08-13T14:26:33.348Z,219.30
2018-08-13T14:29:01.453Z,244.00
2018-08-13T14:31:29.673Z,269.02
2018-08-13T14:33:57.563Z,304.38
2018-08-13T14:36:25.135Z,258.03
2018-08-13T14:38:53.020Z,204.43
2018-08-13T14:41:20.451Z,290.60
2018-08-13T14:43:48.355Z,301.95
2018-08-13T14:46:16.313Z,125.42
2018-08-13T14:48:43.924Z,326.00
2018-08-13T14:51:12.031Z,341.23
2018-08-13T14:53:39.962Z,309.43
2018-08-13T14:56:08.035Z,241.65
2018-08-13T14:58:36.059Z,336.52
2018-08-13T15:01:03.809Z,315.77
2018-08-13T15:03:31.539Z,340.07
2018-08-13T15:05:59.043Z,298.20
2018-08-13T15:08:26.758Z,252.53
2018-08-13T15:10:54.462Z,262.90
2018-08-13T15:13:22.819Z,311.57
2018-08-13T15:15:50.248Z,332.37
2018-08-13T15:18:17.875Z,292.48
2018-08-13T15:20:45.719Z,297.40
2018-08-13T15:23:13.715Z,291.40
2018-08-13T15:25:41.200Z,297.10
2018-08-13T15:28:09.053Z,301.48
2018-08-13T15:30:36.724Z,311.35
2018-08-13T15:33:04.278Z,319.02
2018-08-13T15:35:32.298Z,306.65
2018-08-13T15:37:59.806Z,291.88
2018-08-13T15:40:27.802Z,240.75
2018-08-13T15:42:55.719Z,254.00
2018-08-13T15:45:24.063Z,270.73
2018-08-13T15:47:52.644Z,286.43
2018-08-13T15:50:21.256Z,296.82
2018-08-13T15:52:49.511Z,293.67
2018-08-13T15:55:17.326Z,302.05
2018-08-13T15:57:45.580Z,315.10
2018-08-13T16:00:14.572Z,257.40
2018-08-13T16:02:42.557Z,296.23
2018-08-13T16:05:10.702Z,311.45
2018-08-13T16:07:38.599Z,307.75
2018-08-13T16:10:08.422Z,279.68
2018-08-13T16:12:36.684Z,293.60
2018-08-13T16:15:05.265Z,289.35
2018-08-13T16:17:32.744Z,335.45
2018-08-13T16:20:00.904Z,317.00
2018-08-13T16:22:30.115Z,281.98
2018-08-13T16:24:57.711Z,300.30
2018-08-13T16:27:25.528Z,258.95
2018-08-13T16:29:53.139Z,299.20
2018-08-13T16:32:20.861Z,300.52
2018-08-13T16:34:48.785Z,279.33
2018-08-13T16:37:16.752Z,276.37
2018-08-13T16:39:51.598Z,273.05
2018-08-13T16:42:26.630Z,269.13
2018-08-13T16:44:59.541Z,294.90
2018-08-13T16:47:38.369Z,312.42
2018-08-13T16:50:17.389Z,295.33
2018-08-13T16:52:51.250Z,276.10
2018-08-13T16:55:26.664Z,287.67
2018-08-13T16:58:03.658Z,326.03
2018-08-13T17:00:37.477Z,222.88
2018-08-13T17:03:11.453Z,329.93
2018-08-13T17:05:48.039Z,325.27
2018-08-13T17:08:24.344Z,336.23
2018-08-13T17:10:53.164Z,358.43
2018-08-13T17:13:21.106Z,360.38
2018-08-13T17:15:51.401Z,354.93
2018-08-13T17:18:22.177Z,353.75
2018-08-13T17:20:56.194Z,315.65
2018-08-13T17:23:28.983Z,328.88
2018-08-13T17:26:00.139Z,247.78
2018-08-13T17:28:29.924Z,294.87
2018-08-13T17:31:03.132Z,293.93
2018-08-13T17:33:37.797Z,227.82
2018-08-13T17:36:11.377Z,258.23
2018-08-13T17:38:39.124Z,303.50
2018-08-13T17:41:07.668Z,349.30
2018-08-13T17:43:35.163Z,274.80
2018-08-13T17:46:03.342Z,247.40
2018-08-13T17:48:31.344Z,261.85
2018-08-13T17:50:59.121Z,254.25
2018-08-13T17:53:26.919Z,231.97
2018-08-13T17:55:55.839Z,264.38
2018-08-13T17:58:23.355Z,281.37
2018-08-13T18:00:50.956Z,276.82
2018-08-13T18:03:18.436Z,253.90
2018-08-13T18:05:45.993Z,258.00
2018-08-13T18:08:13.747Z,243.52
2018-08-13T18:10:41.621Z,277.80
2018-08-13T18:13:09.815Z,252.03
2018-08-13T18:15:38.209Z,294.55
2018-08-13T18:18:07.671Z,245.22
2018-08-13T18:20:36.313Z,261.30
2018-08-13T18:23:06.596Z,215.00
2018-08-13T18:25:35.563Z,295.93
2018-08-13T18:28:03.960Z,266.08
2018-08-13T18:30:32.988Z,253.62
2018-08-13T18:33:01.589Z,230.70
2018-08-13T18:35:30.369Z,252.85
2018-08-13T18:37:59.796Z,268.82
2018-08-13T18:40:32.001Z,233.55
2018-08-13T18:43:00.909Z,248.50
2018-08-13T18:45:30.782Z,260.83
2018-08-13T18:48:00.446Z,266.95
2018-08-13T18:50:28.801Z,281.23
2018-08-13T18:52:58.294Z,253.03
2018-08-13T18:55:27.270Z,278.85
2018-08-13T18:57:56.898Z,280.77
2018-08-13T19:00:26.663Z,259.43
2018-08-13T19:02:55.902Z,281.70
2018-08-13T19:05:25.909Z,231.07
2018-08-13T19:07:54.562Z,270.27
2018-08-13T19:10:24.713Z,260.77
2018-08-13T19:12:53.301Z,244.72
2018-08-13T19:15:25.830Z,246.53
2018-08-13T19:17:54.647Z,218.48
2018-08-13T19:20:23.701Z,243.30
2018-08-13T19:22:53.354Z,254.05
2018-08-13T19:25:25.288Z,197.80
2018-08-13T19:27:55.196Z,266.90
2018-08-13T19:30:25.813Z,251.95
2018-08-13T19:32:55.900Z,265.57
2018-08-13T19:35:25.311Z,243.40
2018-08-13T19:37:55.123Z,250.62
2018-08-13T19:40:26.488Z,246.87
2018-08-13T19:42:55.198Z,250.47
2018-08-13T19:45:23.876Z,228.50
2018-08-13T19:47:53.888Z,294.67
2018-08-13T19:50:23.408Z,225.97
2018-08-13T19:52:53.715Z,213.10
2018-08-13T19:55:24.413Z,225.25
2018-08-13T19:57:53.349Z,210.63
2018-08-13T20:00:24.239Z,206.68
2018-08-13T20:02:52.495Z,109.80
2018-08-13T20:05:21.371Z,142.60
2018-08-13T20:07:49.162Z,195.18
2018-08-13T20:10:17.103Z,145.30
2018-08-13T20:12:45.406Z,171.63
2018-08-13T20:15:12.936Z,123.10
2018-08-13T20:17:41.291Z,156.52
2018-08-13T20:20:09.848Z,160.95
2018-08-13T20:22:37.644Z,149.32
2018-08-13T20:25:05.469Z,147.07
2018-08-13T20:27:33.322Z,139.40
2018-08-13T20:30:00.822Z,118.55
2018-08-13T20:32:29.284Z,142.87
2018-08-13T20:34:57.364Z,134.20
2018-08-13T20:37:25.166Z,167.00
2018-08-13T20:39:52.714Z,165.40
2018-08-13T20:42:20.318Z,195.20
2018-08-13T20:44:47.800Z,181.32
2018-08-13T20:47:15.593Z,189.05
2018-08-13T20:49:43.044Z,165.80
2018-08-13T20:52:11.647Z,228.83
2018-08-13T20:54:39.781Z,187.05
2018-08-13T20:57:08.081Z,171.77
2018-08-13T20:59:36.180Z,166.45
2018-08-13T21:02:04.847Z,199.90
2018-08-13T21:04:33.162Z,191.12
2018-08-13T21:07:01.800Z,203.40
2018-08-13T21:09:30.027Z,198.32
2018-08-13T21:11:58.308Z,162.47
2018-08-13T21:14:26.719Z,178.35
2018-08-13T21:16:55.061Z,199.93
2018-08-13T21:19:23.502Z,177.47
2018-08-13T21:21:51.707Z,197.20
2018-08-13T21:24:20.532Z,232.03
2018-08-13T21:26:49.344Z,182.57
2018-08-13T21:29:19.128Z,190.70
2018-08-13T21:31:48.746Z,170.68
2018-08-13T21:34:18.169Z,182.33
2018-08-13T21:36:46.958Z,191.12
2018-08-13T21:39:16.491Z,155.00
2018-08-13T21:41:44.545Z,200.93
2018-08-13T21:44:13.868Z,219.97
2018-08-13T21:46:42.800Z,173.80
2018-08-13T21:49:11.968Z,182.25
2018-08-13T21:51:40.744Z,172.30
2018-08-13T21:54:09.451Z,234.32
2018-08-13T21:56:37.753Z,182.15
2018-08-13T21:59:06.110Z,207.75
2018-08-13T22:01:39.833Z,195.85
2018-08-13T22:04:08.533Z,189.95
2018-08-13T22:06:37.569Z,210.82
2018-08-13T22:09:08.084Z,189.85
2018-08-13T22:11:37.088Z,188.25
2018-08-13T22:14:06.124Z,193.65
2018-08-13T22:16:34.785Z,175.47
2018-08-13T22:19:03.214Z,212.42
2018-08-13T22:21:31.379Z,186.83
2018-08-13T22:24:04.859Z,179.73
2018-08-13T22:26:33.390Z,203.12
2018-08-13T22:29:01.155Z,190.77
2018-08-13T22:31:28.787Z,222.67
2018-08-13T22:33:56.348Z,228.27
2018-08-13T22:36:33.901Z,222.45
2018-08-13T22:39:02.257Z,208.00
2018-08-13T22:41:29.775Z,194.97
2018-08-13T22:43:57.284Z,185.85
2018-08-13T22:46:25.035Z,193.47
2018-08-13T22:48:53.066Z,217.60
2018-08-13T22:51:20.531Z,172.15
2018-08-13T22:53:48.539Z,182.20
2018-08-13T22:56:16.718Z,211.45
2018-08-13T22:58:44.266Z,204.40
2018-08-13T23:01:12.245Z,136.32
2018-08-13T23:03:40.108Z,174.42
2018-08-13T23:06:07.752Z,201.45
2018-08-13T23:08:35.301Z,194.62
2018-08-13T23:11:03.116Z,183.15
2018-08-13T23:13:31.248Z,206.30
2018-08-13T23:15:59.039Z,205.23
2018-08-13T23:18:27.107Z,190.40
2018-08-13T23:20:54.556Z,193.43
2018-08-13T23:23:22.355Z,204.45
2018-08-13T23:25:49.843Z,208.30
2018-08-13T23:28:17.447Z,180.03
2018-08-13T23:30:45.526Z,184.83
2018-08-13T23:33:13.298Z,197.32
2018-08-13T23:35:40.766Z,219.25
2018-08-13T23:38:08.614Z,202.30
2018-08-13T23:40:36.483Z,195.43
2018-08-13T23:43:04.098Z,204.53
2018-08-13T23:45:32.742Z,223.45
2018-08-13T23:48:00.303Z,193.00
2018-08-13T23:50:28.297Z,163.90
2018-08-13T23:52:56.453Z,173.32
2018-08-13T23:55:24.972Z,223.18
2018-08-13T23:57:52.897Z,209.43
